Kilby, North Carolina
Current Conditions -  °F | °C
As of 3:53 PM on Monday 24 Nov 2014 (Local Time) from KHKY Reporting Station
Clear Clear  
Wind Chill: 70°   Ceiling: Unl
Heat Index: 70°   Visibility: 10mi
Dew Point: 50°   Wind: 17mph
Humidity: 49%   Direction: 200°SSW
Pressure: 29.73"   Gusts: 25mph
Location:  35.9243°N, 81.216°W
Report Text: KHKY 242053Z AUTO 20015G22KT 10SM CLR 21/10 A2973 RMK AO2 SLP050 T02110100 55002
Loading
Personal Weather Stations






























Interactive Weather Map New forecast layout! Learn more

10-Day Weather Forecast

Advertisements
Track Severe Weather on mobile